Main page
METAR-TAF:

METAR-TAF

Airports :

Bojnord Airport

Bojnourd, Iran

latitude: 37-28N, longitude: 057-20E, elevation: 1074 m

Current weather observation

The report was made 17 minutes ago, at 14:00 UTC
Wind 10 kt from the West/Northwest
Temperature 33°C
Humidity 30%
Pressure 1010 hPa
Visibility 10 km or more
Few clouds at a height of 3500 ft, Towering cumulus.

METAR: OIMN 181400Z 29010KT 9999 FEW035TCU 33/13 Q1010

Time: 18:47 (14:17 UTC)


TAF: missing

Weather observations and forecasts of more than 4000 airports (METAR and TAF reports).

The available stations are represented by yellow and red dots on the map.

Hover mouse over dot to see the name of the station.

Then click to see weather observations and forecasts.

To change the map : click on the green buttons with a black cross to zoom in, on the green button with a dash to zoom out, or on the green arrows for adjacent maps.


METAR-TAF: